Estación Meteorológica Peña el Pijo (Robertgarden) [ 01/30/23 15:38:51 CET ]

Fecha Hora Presion(HPa) Temp (°C) Humedad % Rocio (°C) Viento ( m/s) Direccion Lluvia 1Hora(mm) Lluvia 24H(mm) LLuvia Total(mm)
2012-Apr-09 01:01:16 1009.100 5.5 64 -0.8         155.40
2012-Apr-09 02:01:16 1009.000 3.6 69 -1.6         155.40
2012-Apr-09 03:03:21 1008.800 2.8 72 -1.7         155.40
2012-Apr-09 04:01:12 1008.500 2.6 72 -1.9         155.40
2012-Apr-09 05:01:14 1008.100 1.4 73 -3.0         155.40
2012-Apr-09 06:01:13 1007.800 1.3 74 -2.9         155.40
2012-Apr-09 07:01:17 1007.400 1.3 73 -3.1         155.40
2012-Apr-09 08:01:16 1007.300 0.4 75 -3.5         155.40
2012-Apr-09 09:01:12 1007.500 5.1 69 -0.1         155.40
2012-Apr-09 10:01:20 1007.000 12.4 47 1.3         155.40
2012-Apr-09 11:01:12 1006.700 17.5 31 0.1         155.40
2012-Apr-09 12:01:17 1006.400 21.2 26 0.7 1.7 N     155.40
2012-Apr-09 13:01:17 1005.600 22.7 23 0.3 2.2 NE     155.40
2012-Apr-09 14:01:12 1005.200 25.0 21 1.1 0.8 WNW     155.40
2012-Apr-09 15:01:12 1004.800 25.6 20 1.0 1.7 SSW     155.40
2012-Apr-09 16:01:17 1004.400 25.9 18 -0.6 0.3 SSE     155.40
2012-Apr-09 17:01:20 1003.600 25.9 17 -1.6 1.4 E     155.40
2012-Apr-09 18:01:14 1003.600 24.6 17 -2.6 0.7 SE     155.40
2012-Apr-09 19:01:12 1003.300 23.8 17 -3.2 1.1 SSE     155.40
2012-Apr-09 20:01:12 1003.200 19.9 21 -3.1         155.40
2012-Apr-09 21:01:14 1003.300 16.4 28 -2.3         155.40
2012-Apr-09 22:01:18 1003.700 12.6 38 -1.4         155.40
2012-Apr-09 23:01:12 1003.400 11.4 44 -0.5         155.40

Temperatura Máxima:25°    Temperatura Mínima:
Presión Máxima:1009.100 Hpa    Presión Mínima:1003.200 Hpa


Volver